createdAt,value
2023-03-29T00:00:12.576Z,3.10
2023-03-29T00:03:02.063Z,2.70
2023-03-29T00:05:33.843Z,2.60
2023-03-29T00:08:04.727Z,2.60
2023-03-29T00:10:34.620Z,4.80
2023-03-29T00:13:03.160Z,2.50
2023-03-29T00:15:31.372Z,2.80
2023-03-29T00:17:59.281Z,4.20
2023-03-29T00:20:28.658Z,3.40
2023-03-29T00:22:56.666Z,3.40
2023-03-29T00:25:24.486Z,2.50
2023-03-29T00:27:52.284Z,2.30
2023-03-29T00:30:20.324Z,2.80
2023-03-29T00:32:48.283Z,2.50
2023-03-29T00:35:16.535Z,3.70
2023-03-29T00:37:47.184Z,3.30
2023-03-29T00:40:15.401Z,3.80
2023-03-29T00:42:46.105Z,2.80
2023-03-29T00:45:22.434Z,2.80
2023-03-29T00:47:57.183Z,4.10
2023-03-29T00:50:43.083Z,2.40
2023-03-29T00:53:27.561Z,4.20
2023-03-29T00:56:04.598Z,4.00
2023-03-29T00:58:39.313Z,2.50
2023-03-29T01:01:11.664Z,2.20
2023-03-29T01:03:46.610Z,3.60
2023-03-29T01:06:18.030Z,2.90
2023-03-29T01:08:53.400Z,3.30
2023-03-29T01:11:28.309Z,3.60
2023-03-29T01:14:02.674Z,4.70
2023-03-29T01:16:33.148Z,3.00
2023-03-29T01:19:02.209Z,3.70
2023-03-29T01:21:37.852Z,4.00
2023-03-29T01:24:29.186Z,3.50
2023-03-29T01:27:29.738Z,3.70
2023-03-29T01:30:02.099Z,6.30
2023-03-29T01:32:35.386Z,7.60
2023-03-29T01:35:13.474Z,12.00
2023-03-29T01:37:49.334Z,6.60
2023-03-29T01:40:17.248Z,5.00
2023-03-29T01:42:58.015Z,4.20
2023-03-29T01:45:36.610Z,4.40
2023-03-29T01:48:22.079Z,4.90
2023-03-29T01:54:18.734Z,3.80
2023-03-29T01:56:49.046Z,3.60
2023-03-29T01:59:29.167Z,3.50
2023-03-29T02:02:00.658Z,2.90
2023-03-29T02:04:34.697Z,2.90
2023-03-29T02:07:05.128Z,3.40
2023-03-29T02:09:37.194Z,3.80
2023-03-29T02:12:10.609Z,3.70
2023-03-29T02:14:38.990Z,3.30
2023-03-29T02:17:18.206Z,3.90
2023-03-29T02:19:51.877Z,4.00
2023-03-29T02:22:26.426Z,3.30
2023-03-29T02:24:59.488Z,3.70
2023-03-29T02:27:29.913Z,4.20
2023-03-29T02:29:58.649Z,6.70
2023-03-29T02:32:41.779Z,5.80
2023-03-29T02:35:15.107Z,7.90
2023-03-29T02:37:47.687Z,3.60
2023-03-29T02:40:17.300Z,4.10
2023-03-29T02:42:46.030Z,3.70
2023-03-29T02:45:17.380Z,6.30
2023-03-29T02:47:51.691Z,5.50
2023-03-29T02:50:20.994Z,4.90
2023-03-29T02:52:56.316Z,4.10
2023-03-29T02:55:31.337Z,4.70
2023-03-29T02:57:59.183Z,7.20
2023-03-29T03:00:28.993Z,5.90
2023-03-29T03:02:59.283Z,3.40
2023-03-29T03:05:28.524Z,5.20
2023-03-29T03:07:57.183Z,4.50
2023-03-29T03:10:25.384Z,5.60
2023-03-29T03:12:53.270Z,4.80
2023-03-29T03:15:21.653Z,6.60
2023-03-29T03:17:49.599Z,3.90
2023-03-29T03:20:18.742Z,3.30
2023-03-29T03:23:21.277Z,5.60
2023-03-29T03:26:44.339Z,4.20
2023-03-29T03:29:19.148Z,7.10
2023-03-29T03:32:06.052Z,6.90
2023-03-29T03:34:45.554Z,4.80
2023-03-29T03:37:15.382Z,5.20
2023-03-29T03:39:55.453Z,3.20
2023-03-29T03:42:26.852Z,4.40
2023-03-29T03:44:54.832Z,4.10
2023-03-29T03:48:00.249Z,4.40
2023-03-29T03:50:44.062Z,4.90
2023-03-29T03:53:17.740Z,4.70
2023-03-29T03:55:58.129Z,4.40
2023-03-29T03:58:32.756Z,6.50
2023-03-29T04:01:21.621Z,3.70
2023-03-29T04:04:03.297Z,4.30
2023-03-29T04:06:35.227Z,5.30
2023-03-29T04:09:35.860Z,5.10
2023-03-29T04:12:21.004Z,4.80
2023-03-29T04:15:21.065Z,6.50
2023-03-29T04:18:54.964Z,6.50
2023-03-29T04:22:03.566Z,6.10
2023-03-29T04:25:47.273Z,5.70
2023-03-29T04:29:21.265Z,7.00
2023-03-29T04:33:03.291Z,5.30
2023-03-29T04:36:30.272Z,4.80
2023-03-29T04:39:56.283Z,6.30
2023-03-29T04:43:24.225Z,7.30
2023-03-29T04:47:12.279Z,7.00
2023-03-29T04:50:38.048Z,6.60
2023-03-29T04:53:55.265Z,6.20
2023-03-29T04:57:02.650Z,6.20
2023-03-29T05:00:35.399Z,7.30
2023-03-29T05:04:10.725Z,5.60
2023-03-29T05:07:34.273Z,6.60
2023-03-29T05:10:45.549Z,7.40
2023-03-29T05:13:59.265Z,7.10
2023-03-29T05:17:33.357Z,8.80
2023-03-29T05:20:28.537Z,7.30
2023-03-29T05:23:58.289Z,8.20
2023-03-29T05:27:30.571Z,10.60
2023-03-29T05:30:26.247Z,9.80
2023-03-29T05:33:31.580Z,6.20
2023-03-29T05:36:59.440Z,8.00
2023-03-29T05:40:05.852Z,8.40
2023-03-29T05:43:57.894Z,9.70
2023-03-29T05:47:00.092Z,5.70
2023-03-29T06:00:46.412Z,6.40
2023-03-29T06:07:56.598Z,5.60
2023-03-29T06:11:22.331Z,4.90
2023-03-29T06:18:49.453Z,6.80
2023-03-29T06:32:55.471Z,8.00
2023-03-29T06:36:11.187Z,5.40
2023-03-29T06:38:41.689Z,11.10
2023-03-29T06:41:19.865Z,9.50
2023-03-29T06:43:57.958Z,10.10
2023-03-29T06:54:18.804Z,6.10
2023-03-29T07:33:01.254Z,8.10
2023-03-29T08:00:53.100Z,5.10
2023-03-29T08:04:20.601Z,3.60
2023-03-29T08:10:48.548Z,7.60
2023-03-29T08:14:18.022Z,6.40
2023-03-29T08:28:58.135Z,4.00
2023-03-29T08:32:19.016Z,7.30
2023-03-29T08:35:38.946Z,5.10
2023-03-29T08:49:05.631Z,11.30
2023-03-29T08:55:18.467Z,5.10
2023-03-29T08:58:45.464Z,5.20
2023-03-29T09:02:14.801Z,6.70
2023-03-29T09:05:17.474Z,6.10
2023-03-29T09:08:23.253Z,4.00
2023-03-29T09:11:13.590Z,7.20
2023-03-29T09:14:26.514Z,6.60
2023-03-29T09:17:26.735Z,8.70
2023-03-29T09:20:11.069Z,6.00
2023-03-29T09:23:11.228Z,5.20
2023-03-29T09:26:10.939Z,8.80
2023-03-29T09:29:29.402Z,5.40
2023-03-29T09:32:12.833Z,2.80
2023-03-29T09:34:45.437Z,6.10
2023-03-29T09:37:28.204Z,6.10
2023-03-29T09:39:57.044Z,4.10
2023-03-29T09:42:39.159Z,10.70
2023-03-29T09:45:14.576Z,6.50
2023-03-29T09:48:07.605Z,3.70
2023-03-29T09:51:01.396Z,6.00
2023-03-29T09:53:29.554Z,5.20
2023-03-29T09:56:41.473Z,4.40
2023-03-29T09:59:40.953Z,4.50
2023-03-29T10:02:15.687Z,6.90
2023-03-29T10:06:04.539Z,4.10
2023-03-29T10:09:17.867Z,6.20
2023-03-29T10:12:26.404Z,4.00
2023-03-29T10:16:45.679Z,4.70
2023-03-29T10:19:57.575Z,3.70
2023-03-29T10:23:07.405Z,2.80
2023-03-29T10:26:43.479Z,9.20
2023-03-29T10:30:10.436Z,4.00
2023-03-29T10:36:55.401Z,6.80
2023-03-29T10:40:48.023Z,6.10
2023-03-29T10:44:14.445Z,3.60
2023-03-29T10:51:22.611Z,3.20
2023-03-29T10:54:53.418Z,3.00
2023-03-29T10:58:36.973Z,4.50
2023-03-29T11:05:25.789Z,1.90
2023-03-29T11:13:11.604Z,7.80
2023-03-29T11:21:01.659Z,2.40
2023-03-29T11:24:22.602Z,2.30
2023-03-29T11:27:49.140Z,2.40
2023-03-29T11:31:05.705Z,8.80
2023-03-29T11:37:52.337Z,1.70
2023-03-29T11:41:00.705Z,4.00
2023-03-29T11:44:39.757Z,2.40
2023-03-29T11:48:24.860Z,2.90
2023-03-29T11:52:04.677Z,2.50
2023-03-29T11:55:19.764Z,3.30
2023-03-29T11:59:12.520Z,3.40
2023-03-29T12:03:21.771Z,2.30
2023-03-29T12:13:42.749Z,2.70
2023-03-29T12:24:23.279Z,2.60
2023-03-29T12:28:23.109Z,2.50
2023-03-29T12:31:44.336Z,2.90
2023-03-29T12:39:30.905Z,2.70
2023-03-29T12:59:21.160Z,2.80
2023-03-29T13:16:38.937Z,4.00
2023-03-29T13:19:30.174Z,3.40
2023-03-29T13:22:31.687Z,4.00
2023-03-29T13:25:30.580Z,2.00
2023-03-29T13:28:36.053Z,3.60
2023-03-29T13:31:49.986Z,4.20
2023-03-29T13:34:37.184Z,6.40
2023-03-29T13:37:34.131Z,3.00
2023-03-29T13:40:27.284Z,3.60
2023-03-29T13:43:36.324Z,3.60
2023-03-29T13:46:56.859Z,6.00
2023-03-29T13:50:11.800Z,3.20
2023-03-29T13:55:09.449Z,3.50
2023-03-29T14:04:49.646Z,4.80
2023-03-29T14:13:06.875Z,2.90
2023-03-29T14:15:57.554Z,3.00
2023-03-29T14:18:48.502Z,4.10
2023-03-29T14:21:27.138Z,5.10
2023-03-29T14:34:21.312Z,6.00
2023-03-29T14:40:51.124Z,4.20
2023-03-29T14:43:38.750Z,2.60
2023-03-29T14:46:23.697Z,3.70
2023-03-29T15:05:42.387Z,4.70
2023-03-29T15:09:49.832Z,2.80
2023-03-29T15:13:38.329Z,2.50
2023-03-29T15:17:46.928Z,5.10
2023-03-29T15:27:54.861Z,3.70
2023-03-29T15:34:26.011Z,2.90
2023-03-29T15:37:24.505Z,5.50
2023-03-29T15:40:38.256Z,3.00
2023-03-29T15:43:30.623Z,2.20
2023-03-29T15:47:04.066Z,2.10
2023-03-29T15:49:41.980Z,2.40
2023-03-29T15:52:12.101Z,4.20
2023-03-29T15:54:48.249Z,6.20
2023-03-29T15:57:25.046Z,3.90
2023-03-29T16:00:09.387Z,1.70
2023-03-29T16:02:48.589Z,2.30
2023-03-29T16:05:28.903Z,2.50
2023-03-29T16:08:10.067Z,3.10
2023-03-29T16:11:10.309Z,2.90
2023-03-29T16:18:07.357Z,2.90
2023-03-29T16:26:45.541Z,3.00
2023-03-29T16:30:19.156Z,2.20
2023-03-29T16:33:44.167Z,2.80
2023-03-29T16:36:12.535Z,2.80
2023-03-29T16:39:19.595Z,2.40
2023-03-29T16:42:17.535Z,4.70
2023-03-29T16:45:40.081Z,5.40
2023-03-29T16:48:43.466Z,3.70
2023-03-29T16:51:58.017Z,2.70
2023-03-29T16:55:23.568Z,3.40
2023-03-29T17:01:58.582Z,5.50
2023-03-29T17:09:04.193Z,4.10
2023-03-29T17:12:13.036Z,5.10
2023-03-29T17:15:27.221Z,7.10
2023-03-29T17:18:47.983Z,10.90
2023-03-29T17:22:02.132Z,9.00
2023-03-29T17:25:18.201Z,5.80
2023-03-29T17:28:30.147Z,4.20
2023-03-29T17:31:40.712Z,3.40
2023-03-29T17:34:38.056Z,6.70
2023-03-29T17:38:14.448Z,4.20
2023-03-29T17:42:02.360Z,5.20
2023-03-29T17:45:39.684Z,5.10
2023-03-29T17:49:21.731Z,5.50
2023-03-29T17:57:08.050Z,7.00
2023-03-29T18:00:51.580Z,9.30
2023-03-29T18:04:15.644Z,9.30
2023-03-29T18:07:49.228Z,4.60
2023-03-29T18:11:39.155Z,6.80
2023-03-29T18:15:13.585Z,5.20
2023-03-29T18:18:55.529Z,6.70
2023-03-29T18:26:29.963Z,6.90
2023-03-29T18:30:06.143Z,7.90
2023-03-29T18:33:35.492Z,6.20
2023-03-29T18:46:50.072Z,6.80
2023-03-29T18:50:21.034Z,12.00
2023-03-29T18:54:07.100Z,11.40
2023-03-29T18:57:58.105Z,16.80
2023-03-29T19:02:03.479Z,8.90
2023-03-29T19:05:40.069Z,5.50
2023-03-29T19:09:11.120Z,12.50
2023-03-29T19:13:03.109Z,18.20
2023-03-29T19:16:39.836Z,21.90
2023-03-29T19:20:35.037Z,7.00
2023-03-29T19:24:31.074Z,8.70
2023-03-29T19:28:07.996Z,5.80
2023-03-29T19:31:26.082Z,7.00
2023-03-29T19:35:03.047Z,8.70
2023-03-29T19:38:25.052Z,7.30
2023-03-29T19:42:02.063Z,7.70
2023-03-29T19:45:47.084Z,7.80
2023-03-29T19:49:33.044Z,8.60
2023-03-29T19:53:14.059Z,9.40
2023-03-29T19:57:05.103Z,7.50
2023-03-29T20:00:58.803Z,4.70
2023-03-29T20:04:28.113Z,7.70
2023-03-29T20:08:26.739Z,4.40
2023-03-29T20:15:05.072Z,5.00
2023-03-29T20:18:45.994Z,3.70
2023-03-29T20:22:38.062Z,4.70
2023-03-29T20:26:30.972Z,9.40
2023-03-29T20:30:11.086Z,9.90
2023-03-29T20:33:53.679Z,8.50
2023-03-29T20:37:23.045Z,10.50
2023-03-29T20:41:19.083Z,16.70
2023-03-29T20:45:08.980Z,10.70
2023-03-29T20:48:51.056Z,13.90
2023-03-29T20:52:35.985Z,15.80
2023-03-29T20:55:05.864Z,6.90
2023-03-29T20:57:34.205Z,7.40
2023-03-29T21:00:12.737Z,9.60
2023-03-29T21:02:40.794Z,4.90
2023-03-29T21:05:09.669Z,4.50
2023-03-29T21:07:37.718Z,5.40
2023-03-29T21:10:06.974Z,6.00
2023-03-29T21:12:35.114Z,4.50
2023-03-29T21:15:03.952Z,5.70
2023-03-29T21:17:33.565Z,7.10
2023-03-29T21:20:02.570Z,10.70
2023-03-29T21:22:31.220Z,9.30
2023-03-29T21:25:00.121Z,9.80
2023-03-29T21:27:28.697Z,8.80
2023-03-29T21:29:56.647Z,9.60
2023-03-29T21:32:24.956Z,8.40
2023-03-29T21:34:56.888Z,5.40
2023-03-29T21:37:25.695Z,7.20
2023-03-29T21:39:53.613Z,5.80
2023-03-29T21:42:21.543Z,4.30
2023-03-29T21:44:49.380Z,6.50
2023-03-29T21:47:17.238Z,9.60
2023-03-29T21:49:45.432Z,10.70
2023-03-29T21:52:13.624Z,11.00
2023-03-29T21:54:41.530Z,7.40
2023-03-29T21:57:09.557Z,11.10
2023-03-29T21:59:37.664Z,9.30
2023-03-29T22:02:05.939Z,5.20
2023-03-29T22:04:37.131Z,6.80
2023-03-29T22:07:10.517Z,4.70
2023-03-29T22:09:42.416Z,5.20
2023-03-29T22:12:10.710Z,7.90
2023-03-29T22:14:38.925Z,7.30
2023-03-29T22:17:07.058Z,8.60
2023-03-29T22:19:39.368Z,9.10
2023-03-29T22:22:14.061Z,7.80
2023-03-29T22:24:42.642Z,7.70
2023-03-29T22:27:11.830Z,4.00
2023-03-29T22:29:40.112Z,5.90
2023-03-29T22:32:08.584Z,3.90
2023-03-29T22:34:37.084Z,4.10
2023-03-29T22:37:05.595Z,3.60
2023-03-29T22:39:36.755Z,3.80
2023-03-29T22:42:04.890Z,4.90
2023-03-29T22:44:34.052Z,4.10
2023-03-29T22:47:02.204Z,4.30
2023-03-29T22:49:30.960Z,4.70
2023-03-29T22:52:01.407Z,3.60
2023-03-29T22:54:30.379Z,5.10
2023-03-29T22:56:58.471Z,4.60
2023-03-29T22:59:27.325Z,5.00
2023-03-29T23:01:56.500Z,4.70
2023-03-29T23:04:25.385Z,5.00
2023-03-29T23:06:53.542Z,5.70
2023-03-29T23:09:22.318Z,4.70
2023-03-29T23:11:50.551Z,2.80
2023-03-29T23:14:19.036Z,5.30
2023-03-29T23:16:47.207Z,6.00
2023-03-29T23:19:15.099Z,2.90
2023-03-29T23:21:43.333Z,5.40
2023-03-29T23:24:11.831Z,4.70
2023-03-29T23:26:39.742Z,3.60
2023-03-29T23:29:08.442Z,3.90
2023-03-29T23:31:37.739Z,5.70
2023-03-29T23:34:05.689Z,4.00
2023-03-29T23:36:33.616Z,3.80
2023-03-29T23:39:30.980Z,3.40
2023-03-29T23:46:40.428Z,5.40
2023-03-29T23:54:24.962Z,4.70
2023-03-29T23:58:22.073Z,6.10
